createdAt,value
2018-07-14T00:00:36.143Z,15.80
2018-07-14T00:03:07.380Z,15.70
2018-07-14T00:05:38.147Z,15.70
2018-07-14T00:08:09.032Z,15.70
2018-07-14T00:10:40.268Z,15.70
2018-07-14T00:13:11.489Z,15.60
2018-07-14T00:15:42.685Z,15.60
2018-07-14T00:18:14.703Z,15.60
2018-07-14T00:20:46.094Z,15.60
2018-07-14T00:23:17.763Z,15.60
2018-07-14T00:25:54.484Z,15.60
2018-07-14T00:28:25.451Z,15.60
2018-07-14T00:30:56.681Z,15.70
2018-07-14T00:33:28.634Z,15.70
2018-07-14T00:36:00.452Z,15.70
2018-07-14T00:38:31.937Z,15.80
2018-07-14T00:41:02.960Z,15.80
2018-07-14T00:43:34.411Z,15.80
2018-07-14T00:46:06.121Z,15.80
2018-07-14T00:48:37.357Z,15.80
2018-07-14T00:51:08.579Z,15.80
2018-07-14T00:53:39.831Z,15.90
2018-07-14T00:56:11.673Z,15.80
2018-07-14T00:58:43.611Z,15.80
2018-07-14T01:01:14.832Z,15.70
2018-07-14T01:03:46.909Z,15.70
2018-07-14T01:06:18.122Z,15.70
2018-07-14T01:08:49.339Z,15.70
2018-07-14T01:11:20.623Z,15.80
2018-07-14T01:13:51.917Z,15.70
2018-07-14T01:16:23.212Z,15.70
2018-07-14T01:18:54.021Z,15.70
2018-07-14T01:21:24.901Z,15.70
2018-07-14T01:23:56.467Z,15.70
2018-07-14T01:26:27.981Z,15.70
2018-07-14T01:28:59.334Z,15.70
2018-07-14T01:31:31.433Z,15.70
2018-07-14T01:34:02.731Z,15.70
2018-07-14T01:36:33.542Z,15.60
2018-07-14T01:39:04.725Z,15.60
2018-07-14T01:41:35.813Z,15.60
2018-07-14T01:44:06.705Z,15.50
2018-07-14T01:46:37.525Z,15.50
2018-07-14T01:49:08.361Z,15.40
2018-07-14T01:51:39.023Z,15.40
2018-07-14T01:54:10.637Z,15.40
2018-07-14T01:56:42.382Z,15.50
2018-07-14T01:59:13.593Z,15.50
2018-07-14T02:01:44.924Z,15.60
2018-07-14T02:04:16.137Z,15.70
2018-07-14T02:06:48.070Z,15.80
2018-07-14T02:09:19.791Z,15.90
2018-07-14T02:11:51.027Z,16.00
2018-07-14T02:14:21.896Z,16.00
2018-07-14T02:16:53.542Z,16.10
2018-07-14T02:19:24.770Z,16.20
2018-07-14T02:21:56.010Z,16.20
2018-07-14T02:24:27.242Z,16.30
2018-07-14T02:26:58.448Z,16.30
2018-07-14T02:29:29.683Z,16.30
2018-07-14T02:32:01.114Z,16.30
2018-07-14T02:34:32.868Z,16.30
2018-07-14T02:37:04.956Z,16.20
2018-07-14T02:39:36.169Z,16.20
2018-07-14T02:42:07.853Z,16.20
2018-07-14T02:44:39.663Z,16.20
2018-07-14T02:47:10.446Z,16.20
2018-07-14T02:49:42.354Z,16.20
2018-07-14T02:52:15.433Z,16.20
2018-07-14T02:54:47.111Z,16.30
2018-07-14T02:57:18.636Z,16.20
2018-07-14T02:59:51.116Z,16.20
2018-07-14T03:02:22.980Z,16.20
2018-07-14T03:04:54.275Z,16.20
2018-07-14T03:07:25.522Z,16.20
2018-07-14T03:09:56.781Z,16.20
2018-07-14T03:12:28.015Z,16.10
2018-07-14T03:14:59.836Z,16.10
2018-07-14T03:17:30.979Z,16.10
2018-07-14T03:20:02.288Z,16.00
2018-07-14T03:22:33.067Z,16.00
2018-07-14T03:25:04.313Z,16.00
2018-07-14T03:27:35.422Z,15.90
2018-07-14T03:30:07.139Z,15.90
2018-07-14T03:32:38.348Z,15.80
2018-07-14T03:35:09.866Z,15.80
2018-07-14T03:37:40.866Z,15.90
2018-07-14T03:40:12.316Z,15.90
2018-07-14T03:42:43.533Z,15.90
2018-07-14T03:45:14.538Z,15.90
2018-07-14T03:47:46.476Z,15.80
2018-07-14T03:50:17.882Z,15.80
2018-07-14T03:52:49.510Z,15.70
2018-07-14T03:55:20.677Z,15.70
2018-07-14T03:57:51.974Z,15.60
2018-07-14T04:00:23.918Z,15.50
2018-07-14T04:02:55.722Z,15.50
2018-07-14T04:05:26.486Z,15.40
2018-07-14T04:07:57.775Z,15.40
2018-07-14T04:10:29.408Z,15.30
2018-07-14T04:13:00.554Z,15.30
2018-07-14T04:15:31.449Z,15.30
2018-07-14T04:18:06.436Z,15.30
2018-07-14T04:20:38.217Z,15.20
2018-07-14T04:23:09.041Z,15.10
2018-07-14T04:25:39.778Z,15.20
2018-07-14T04:28:11.001Z,15.20
2018-07-14T04:30:42.558Z,15.20
2018-07-14T04:33:13.810Z,15.20
2018-07-14T04:35:45.598Z,15.30
2018-07-14T04:38:16.783Z,15.30
2018-07-14T04:40:48.293Z,15.40
2018-07-14T04:43:19.643Z,15.40
2018-07-14T04:45:51.262Z,15.50
2018-07-14T04:48:22.976Z,15.50
2018-07-14T04:50:54.186Z,15.50
2018-07-14T04:53:25.445Z,15.60
2018-07-14T04:55:56.724Z,15.60
2018-07-14T04:58:28.255Z,15.70
2018-07-14T05:00:59.404Z,15.80
2018-07-14T05:03:31.983Z,15.90
2018-07-14T05:06:03.804Z,16.00
2018-07-14T05:08:35.784Z,16.30
2018-07-14T05:11:07.974Z,16.50
2018-07-14T05:13:39.474Z,16.80
2018-07-14T05:16:10.810Z,17.10
2018-07-14T05:18:42.395Z,17.50
2018-07-14T05:21:13.792Z,17.90
2018-07-14T05:23:46.171Z,18.30
2018-07-14T05:26:18.262Z,18.80
2018-07-14T05:28:50.123Z,19.20
2018-07-14T05:31:22.111Z,19.50
2018-07-14T05:33:54.532Z,19.90
2018-07-14T05:36:26.282Z,20.10
2018-07-14T05:38:59.302Z,20.50
2018-07-14T05:41:31.329Z,20.80
2018-07-14T05:44:02.791Z,21.00
2018-07-14T05:46:34.386Z,21.30
2018-07-14T05:49:06.483Z,21.60
2018-07-14T05:51:38.918Z,21.80
2018-07-14T05:54:10.190Z,22.10
2018-07-14T05:56:42.193Z,22.50
2018-07-14T05:59:13.532Z,22.80
2018-07-14T06:01:45.683Z,23.00
2018-07-14T06:04:17.635Z,23.30
2018-07-14T06:06:49.017Z,23.60
2018-07-14T06:09:21.029Z,23.70
2018-07-14T06:11:53.455Z,23.90
2018-07-14T06:14:25.346Z,24.00
2018-07-14T06:16:57.297Z,24.00
2018-07-14T06:19:28.978Z,24.00
2018-07-14T06:22:01.653Z,23.90
2018-07-14T06:24:33.309Z,23.90
2018-07-14T06:27:04.805Z,24.00
2018-07-14T06:29:36.475Z,23.80
2018-07-14T06:32:09.094Z,23.60
2018-07-14T06:34:41.579Z,23.40
2018-07-14T06:37:13.624Z,23.50
2018-07-14T06:39:45.009Z,23.60
2018-07-14T06:42:17.510Z,23.80
2018-07-14T06:44:49.140Z,23.70
2018-07-14T06:47:21.657Z,23.80
2018-07-14T06:49:53.486Z,23.80
2018-07-14T06:52:25.074Z,23.90
2018-07-14T06:54:56.319Z,24.20
2018-07-14T06:57:27.923Z,24.50
2018-07-14T06:59:59.676Z,24.70
2018-07-14T07:02:31.228Z,24.90
2018-07-14T07:05:02.867Z,25.00
2018-07-14T07:07:34.961Z,24.80
2018-07-14T07:10:06.663Z,24.90
2018-07-14T07:12:39.221Z,24.90
2018-07-14T07:15:11.323Z,24.90
2018-07-14T07:17:43.040Z,24.80
2018-07-14T07:20:15.542Z,24.90
2018-07-14T07:22:47.609Z,24.80
2018-07-14T07:25:20.232Z,24.80
2018-07-14T07:27:51.842Z,24.90
2018-07-14T07:30:23.196Z,25.10
2018-07-14T07:32:55.154Z,25.20
2018-07-14T07:35:26.881Z,25.40
2018-07-14T07:37:58.646Z,25.50
2018-07-14T07:40:30.642Z,25.50
2018-07-14T07:43:02.406Z,25.70
2018-07-14T07:45:34.373Z,25.80
2018-07-14T07:48:06.502Z,25.90
2018-07-14T07:50:38.763Z,26.00
2018-07-14T07:53:10.704Z,26.00
2018-07-14T07:55:42.098Z,26.10
2018-07-14T07:58:13.671Z,26.00
2018-07-14T08:00:44.927Z,26.00
2018-07-14T08:03:16.952Z,25.80
2018-07-14T08:05:48.726Z,25.70
2018-07-14T08:08:20.867Z,25.80
2018-07-14T08:10:52.521Z,25.70
2018-07-14T08:13:24.007Z,25.80
2018-07-14T08:15:55.689Z,25.80
2018-07-14T08:18:28.254Z,25.80
2018-07-14T08:21:00.783Z,25.90
2018-07-14T08:23:32.597Z,25.90
2018-07-14T08:26:04.171Z,25.80
2018-07-14T08:28:36.603Z,26.00
2018-07-14T08:31:07.986Z,26.10
2018-07-14T08:33:39.680Z,26.20
2018-07-14T08:36:10.407Z,26.30
2018-07-14T08:38:42.139Z,26.50
2018-07-14T08:43:44.703Z,25.50
2018-07-14T08:46:16.480Z,24.90
2018-07-14T08:48:48.208Z,24.60
2018-07-14T08:51:19.457Z,24.40
2018-07-14T08:53:51.199Z,24.10
2018-07-14T08:56:22.848Z,23.70
2018-07-14T08:58:54.432Z,23.40
2018-07-14T09:01:25.823Z,23.10
2018-07-14T09:03:57.400Z,22.90
2018-07-14T09:06:28.921Z,22.80
2018-07-14T09:09:00.304Z,22.90
2018-07-14T09:11:32.422Z,23.10
2018-07-14T09:14:04.542Z,23.00
2018-07-14T09:16:36.280Z,22.80
2018-07-14T09:19:07.841Z,22.60
2018-07-14T09:21:39.984Z,22.50
2018-07-14T09:24:11.939Z,22.80
2018-07-14T09:26:43.677Z,23.30
2018-07-14T09:29:14.937Z,23.90
2018-07-14T09:31:46.587Z,24.60
2018-07-14T09:34:17.813Z,24.80
2018-07-14T09:36:49.391Z,25.30
2018-07-14T09:39:21.438Z,25.70
2018-07-14T09:41:52.794Z,26.10
2018-07-14T09:44:24.514Z,26.20
2018-07-14T09:46:56.142Z,26.30
2018-07-14T09:49:29.472Z,26.30
2018-07-14T09:52:00.349Z,26.50
2018-07-14T09:54:31.938Z,26.50
2018-07-14T09:57:03.698Z,26.60
2018-07-14T09:59:34.911Z,26.70
2018-07-14T10:02:06.430Z,26.70
2018-07-14T10:04:38.122Z,27.00
2018-07-14T10:07:09.345Z,27.20
2018-07-14T10:09:40.572Z,27.10
2018-07-14T10:12:11.468Z,27.30
2018-07-14T10:14:43.035Z,27.20
2018-07-14T10:17:14.785Z,27.10
2018-07-14T10:19:46.343Z,26.80
2018-07-14T10:22:17.645Z,26.20
2018-07-14T10:24:49.931Z,25.60
2018-07-14T10:27:21.429Z,25.20
2018-07-14T10:29:53.030Z,24.70
2018-07-14T10:32:24.453Z,24.40
2018-07-14T10:34:56.806Z,24.20
2018-07-14T10:37:28.893Z,24.10
2018-07-14T10:40:00.784Z,24.30
2018-07-14T10:42:33.229Z,24.40
2018-07-14T10:45:05.312Z,24.40
2018-07-14T10:47:37.061Z,24.30
2018-07-14T10:50:08.975Z,24.60
2018-07-14T10:52:41.232Z,25.30
2018-07-14T10:55:13.721Z,26.10
2018-07-14T10:57:45.738Z,26.70
2018-07-14T11:00:17.866Z,27.00
2018-07-14T11:02:49.132Z,27.20
2018-07-14T11:05:20.736Z,27.50
2018-07-14T11:07:51.963Z,27.90
2018-07-14T11:10:23.255Z,28.20
2018-07-14T11:12:54.934Z,28.40
2018-07-14T11:15:26.489Z,28.40
2018-07-14T11:17:57.854Z,27.80
2018-07-14T11:20:29.055Z,27.30
2018-07-14T11:23:00.181Z,26.80
2018-07-14T11:25:32.438Z,26.20
2018-07-14T11:28:04.014Z,25.60
2018-07-14T11:30:36.240Z,25.20
2018-07-14T11:33:08.243Z,24.90
2018-07-14T11:35:40.718Z,24.80
2018-07-14T11:38:12.490Z,24.90
2018-07-14T11:40:44.044Z,25.50
2018-07-14T11:43:15.740Z,26.40
2018-07-14T11:45:46.954Z,26.90
2018-07-14T11:48:18.692Z,27.30
2018-07-14T11:50:50.725Z,27.50
2018-07-14T11:53:21.938Z,27.40
2018-07-14T11:55:53.183Z,27.60
2018-07-14T11:58:24.936Z,27.80
2018-07-14T12:00:56.516Z,27.70
2018-07-14T12:03:28.350Z,27.10
2018-07-14T12:05:59.928Z,26.60
2018-07-14T12:08:31.623Z,26.50
2018-07-14T12:11:04.499Z,26.40
2018-07-14T12:13:36.235Z,26.60
2018-07-14T12:16:08.412Z,27.20
2018-07-14T12:18:39.632Z,27.20
2018-07-14T12:21:11.606Z,27.40
2018-07-14T12:23:42.771Z,27.40
2018-07-14T12:26:14.481Z,27.10
2018-07-14T12:28:45.703Z,26.80
2018-07-14T12:31:16.582Z,26.90
2018-07-14T12:33:47.441Z,27.20
2018-07-14T12:36:18.686Z,27.20
2018-07-14T12:38:49.834Z,27.30
2018-07-14T12:41:21.061Z,27.40
2018-07-14T12:43:53.115Z,27.70
2018-07-14T12:46:24.303Z,27.90
2018-07-14T12:48:56.043Z,28.30
2018-07-14T12:51:27.345Z,28.50
2018-07-14T12:53:58.976Z,28.70
2018-07-14T12:56:31.072Z,29.00
2018-07-14T12:59:02.350Z,29.00
2018-07-14T13:01:33.965Z,28.90
2018-07-14T13:04:05.643Z,28.80
2018-07-14T13:06:36.844Z,28.70
2018-07-14T13:09:08.152Z,28.10
2018-07-14T13:11:39.738Z,27.60
2018-07-14T13:14:11.023Z,27.40
2018-07-14T13:16:42.192Z,27.20
2018-07-14T13:19:13.419Z,27.20
2018-07-14T13:21:44.941Z,27.40
2018-07-14T13:24:16.183Z,27.60
2018-07-14T13:26:47.149Z,27.90
2018-07-14T13:29:18.338Z,27.90
2018-07-14T13:31:49.976Z,27.90
2018-07-14T13:34:21.182Z,27.90
2018-07-14T13:36:52.055Z,27.60
2018-07-14T13:39:22.886Z,27.20
2018-07-14T13:41:54.023Z,27.10
2018-07-14T13:44:24.797Z,27.10
2018-07-14T13:46:55.648Z,27.20
2018-07-14T13:49:27.717Z,27.40
2018-07-14T13:51:59.377Z,27.40
2018-07-14T13:54:30.639Z,27.20
2018-07-14T13:57:02.757Z,27.00
2018-07-14T13:59:34.687Z,26.70
2018-07-14T14:02:07.348Z,26.80
2018-07-14T14:04:38.942Z,26.90
2018-07-14T14:07:10.342Z,27.30
2018-07-14T14:09:42.728Z,27.30
2018-07-14T14:12:14.894Z,27.10
2018-07-14T14:14:46.029Z,26.90
2018-07-14T14:17:18.223Z,26.50
2018-07-14T14:19:49.881Z,26.30
2018-07-14T14:22:21.530Z,26.00
2018-07-14T14:24:52.849Z,25.70
2018-07-14T14:27:24.531Z,25.60
2018-07-14T14:29:56.028Z,25.50
2018-07-14T14:32:28.307Z,25.50
2018-07-14T14:34:59.878Z,25.50
2018-07-14T14:37:32.449Z,25.40
2018-07-14T14:40:04.168Z,25.40
2018-07-14T14:42:35.268Z,25.40
2018-07-14T14:45:07.079Z,25.30
2018-07-14T14:47:38.629Z,25.20
2018-07-14T14:50:10.291Z,25.20
2018-07-14T14:52:42.789Z,25.10
2018-07-14T14:55:14.600Z,25.00
2018-07-14T14:57:46.131Z,25.00
2018-07-14T15:00:17.456Z,24.80
2018-07-14T15:02:49.614Z,24.70
2018-07-14T15:05:21.210Z,24.50
2018-07-14T15:07:53.329Z,24.40
2018-07-14T15:10:24.874Z,24.40
2018-07-14T15:12:57.117Z,24.30
2018-07-14T15:15:28.715Z,24.30
2018-07-14T15:18:00.345Z,24.30
2018-07-14T15:20:32.127Z,24.30
2018-07-14T15:23:04.110Z,24.50
2018-07-14T15:25:36.290Z,24.60
2018-07-14T15:28:08.559Z,24.70
2018-07-14T15:30:39.997Z,24.90
2018-07-14T15:33:12.296Z,25.00
2018-07-14T15:35:44.223Z,25.00
2018-07-14T15:38:16.015Z,25.00
2018-07-14T15:40:48.156Z,25.00
2018-07-14T15:43:19.421Z,25.10
2018-07-14T15:45:51.341Z,25.10
2018-07-14T15:48:23.027Z,25.10
2018-07-14T15:50:55.119Z,25.00
2018-07-14T15:53:27.312Z,25.00
2018-07-14T15:55:58.570Z,25.10
2018-07-14T15:58:30.556Z,25.40
2018-07-14T16:01:01.959Z,25.70
2018-07-14T16:03:33.619Z,26.00
2018-07-14T16:06:05.093Z,26.00
2018-07-14T16:08:37.648Z,25.90
2018-07-14T16:11:09.883Z,25.90
2018-07-14T16:13:41.409Z,25.80
2018-07-14T16:16:13.705Z,25.60
2018-07-14T16:18:45.196Z,25.60
2018-07-14T16:21:17.036Z,25.50
2018-07-14T16:23:48.735Z,25.40
2018-07-14T16:26:20.665Z,25.30
2018-07-14T16:28:52.480Z,25.30
2018-07-14T16:31:24.080Z,25.20
2018-07-14T16:33:56.253Z,25.40
2018-07-14T16:36:27.813Z,25.70
2018-07-14T16:39:00.736Z,25.90
2018-07-14T16:41:32.533Z,26.00
2018-07-14T16:44:04.508Z,25.90
2018-07-14T16:46:36.308Z,25.70
2018-07-14T16:49:08.298Z,25.40
2018-07-14T16:51:40.501Z,25.10
2018-07-14T16:54:12.675Z,24.90
2018-07-14T16:56:44.217Z,24.70
2018-07-14T16:59:16.447Z,24.50
2018-07-14T17:01:47.935Z,24.40
2018-07-14T17:04:19.673Z,24.30
2018-07-14T17:06:52.219Z,24.20
2018-07-14T17:09:23.962Z,24.10
2018-07-14T17:11:56.898Z,24.10
2018-07-14T17:14:28.523Z,24.30
2018-07-14T17:16:59.871Z,24.40
2018-07-14T17:19:31.884Z,24.50
2018-07-14T17:22:03.659Z,24.50
2018-07-14T17:24:36.025Z,24.50
2018-07-14T17:27:08.250Z,24.40
2018-07-14T17:29:40.424Z,24.30
2018-07-14T17:32:12.373Z,24.10
2018-07-14T17:34:44.905Z,24.00
2018-07-14T17:37:17.015Z,24.00
2018-07-14T17:39:48.696Z,24.10
2018-07-14T17:42:21.222Z,24.20
2018-07-14T17:44:53.774Z,24.30
2018-07-14T17:47:25.625Z,24.50
2018-07-14T17:49:57.098Z,24.70
2018-07-14T17:52:29.323Z,24.70
2018-07-14T17:55:00.932Z,24.50
2018-07-14T17:57:33.451Z,24.30
2018-07-14T18:00:05.663Z,24.00
2018-07-14T18:02:37.241Z,23.70
2018-07-14T18:05:09.724Z,23.50
2018-07-14T18:07:41.416Z,23.20
2018-07-14T18:10:13.978Z,23.00
2018-07-14T18:12:45.738Z,22.80
2018-07-14T18:15:17.314Z,22.70
2018-07-14T18:17:48.646Z,22.60
2018-07-14T18:20:20.209Z,22.50
2018-07-14T18:22:52.030Z,22.40
2018-07-14T18:25:23.531Z,22.30
2018-07-14T18:27:55.211Z,22.30
2018-07-14T18:30:27.340Z,22.10
2018-07-14T18:32:58.982Z,22.00
2018-07-14T18:35:30.762Z,21.80
2018-07-14T18:38:02.759Z,21.60
2018-07-14T18:40:34.535Z,21.50
2018-07-14T18:43:06.177Z,21.30
2018-07-14T18:45:37.770Z,21.10
2018-07-14T18:48:09.597Z,20.90
2018-07-14T18:50:41.089Z,20.80
2018-07-14T18:53:12.786Z,20.50
2018-07-14T18:55:44.912Z,20.40
2018-07-14T18:58:17.108Z,20.30
2018-07-14T19:00:49.105Z,20.20
2018-07-14T19:03:20.913Z,20.10
2018-07-14T19:05:52.418Z,20.00
2018-07-14T19:08:24.647Z,19.90
2018-07-14T19:10:56.258Z,19.90
2018-07-14T19:13:28.444Z,19.80
2018-07-14T19:16:00.036Z,19.70
2018-07-14T19:18:31.713Z,19.60
2018-07-14T19:21:03.535Z,19.50
2018-07-14T19:23:35.588Z,19.40
2018-07-14T19:26:08.268Z,19.30
2018-07-14T19:28:40.573Z,19.10
2018-07-14T19:31:12.371Z,19.00
2018-07-14T19:33:44.333Z,18.90
2018-07-14T19:36:16.931Z,18.70
2018-07-14T19:38:48.769Z,18.60
2018-07-14T19:41:20.719Z,18.60
2018-07-14T19:43:53.852Z,18.50
2018-07-14T19:46:25.821Z,18.50
2018-07-14T19:48:57.626Z,18.50
2018-07-14T19:51:29.609Z,18.40
2018-07-14T19:54:01.444Z,18.40
2018-07-14T19:56:33.389Z,18.30
2018-07-14T19:59:05.946Z,18.20
2018-07-14T20:01:38.084Z,18.20
2018-07-14T20:04:10.282Z,18.20
2018-07-14T20:06:42.308Z,18.20
2018-07-14T20:09:14.829Z,18.10
2018-07-14T20:11:46.593Z,18.10
2018-07-14T20:14:18.612Z,18.10
2018-07-14T20:16:50.428Z,18.00
2018-07-14T20:19:22.386Z,18.00
2018-07-14T20:21:54.252Z,17.80
2018-07-14T20:24:26.786Z,17.80
2018-07-14T20:26:58.752Z,17.80
2018-07-14T20:29:31.240Z,17.90
2018-07-14T20:32:03.409Z,18.00
2018-07-14T20:34:35.590Z,18.10
2018-07-14T20:37:07.595Z,18.10
2018-07-14T20:39:39.710Z,18.10
2018-07-14T20:42:11.993Z,18.00
2018-07-14T20:44:43.943Z,17.90
2018-07-14T20:47:16.107Z,17.90
2018-07-14T20:49:49.028Z,17.80
2018-07-14T20:52:22.173Z,17.80
2018-07-14T20:54:54.684Z,17.80
2018-07-14T20:57:26.710Z,17.80
2018-07-14T20:59:58.408Z,17.80
2018-07-14T21:02:30.440Z,17.80
2018-07-14T21:05:02.290Z,17.80
2018-07-14T21:07:33.755Z,17.80
2018-07-14T21:10:05.453Z,17.70
2018-07-14T21:12:37.355Z,17.70
2018-07-14T21:15:09.775Z,17.60
2018-07-14T21:17:41.788Z,17.60
2018-07-14T21:20:13.981Z,17.60
2018-07-14T21:22:46.896Z,17.60
2018-07-14T21:25:19.424Z,17.70
2018-07-14T21:27:51.213Z,17.70
2018-07-14T21:30:23.243Z,17.70
2018-07-14T21:32:54.986Z,17.70
2018-07-14T21:35:27.003Z,17.60
2018-07-14T21:37:59.164Z,17.50
2018-07-14T21:40:30.769Z,17.50
2018-07-14T21:43:02.511Z,17.40
2018-07-14T21:45:34.032Z,17.40
2018-07-14T21:48:05.771Z,17.30
2018-07-14T21:50:37.559Z,17.30
2018-07-14T21:53:09.529Z,17.20
2018-07-14T21:55:41.260Z,17.20
2018-07-14T21:58:12.572Z,17.20
2018-07-14T22:00:49.310Z,17.30
2018-07-14T22:03:21.607Z,17.30
2018-07-14T22:05:53.183Z,17.20
2018-07-14T22:08:24.442Z,17.20
2018-07-14T22:10:56.158Z,17.10
2018-07-14T22:13:27.839Z,17.10
2018-07-14T22:15:59.792Z,17.10
2018-07-14T22:18:31.901Z,17.10
2018-07-14T22:21:03.608Z,17.10
2018-07-14T22:23:34.785Z,17.10
2018-07-14T22:26:06.828Z,17.10
2018-07-14T22:28:38.558Z,17.10
2018-07-14T22:31:09.922Z,17.10
2018-07-14T22:33:41.546Z,17.20
2018-07-14T22:36:13.097Z,17.20
2018-07-14T22:38:44.952Z,17.20
2018-07-14T22:41:17.317Z,17.20
2018-07-14T22:43:48.100Z,17.10
2018-07-14T22:46:19.928Z,17.10
2018-07-14T22:48:51.954Z,17.10
2018-07-14T22:51:23.208Z,17.10
2018-07-14T22:53:54.394Z,17.10
2018-07-14T22:56:25.659Z,17.10
2018-07-14T22:58:56.831Z,17.00
2018-07-14T23:01:28.096Z,17.00
2018-07-14T23:03:59.313Z,17.00
2018-07-14T23:06:30.881Z,17.00
2018-07-14T23:09:01.771Z,17.00
2018-07-14T23:11:33.875Z,17.00
2018-07-14T23:14:05.097Z,17.00
2018-07-14T23:16:36.759Z,17.00
2018-07-14T23:19:07.959Z,17.00
2018-07-14T23:21:39.564Z,17.00
2018-07-14T23:24:12.254Z,17.00
2018-07-14T23:26:43.463Z,17.00
2018-07-14T23:29:16.814Z,17.00
2018-07-14T23:31:48.032Z,17.00
2018-07-14T23:34:19.628Z,16.90
2018-07-14T23:36:50.386Z,16.90
2018-07-14T23:39:21.746Z,17.00
2018-07-14T23:41:52.830Z,17.00
2018-07-14T23:44:24.533Z,17.00
2018-07-14T23:46:55.757Z,17.00
2018-07-14T23:49:27.510Z,17.00
2018-07-14T23:51:58.719Z,16.90
2018-07-14T23:54:30.009Z,16.90
2018-07-14T23:57:01.539Z,16.80
2018-07-14T23:59:32.486Z,16.80
